sensor_id;sensor_type;location;lat;lon;timestamp;temperature;humidity
29413;DHT22;16389;50.126;8.450;2023-03-16T00:01:53;-0.50;99.90
29413;DHT22;16389;50.126;8.450;2023-03-16T00:04:19;-0.60;99.90
29413;DHT22;16389;50.126;8.450;2023-03-16T00:06:44;-0.70;99.90
29413;DHT22;16389;50.126;8.450;2023-03-16T00:09:10;-0.70;99.90
29413;DHT22;16389;50.126;8.450;2023-03-16T00:11:35;-0.70;99.90
29413;DHT22;16389;50.126;8.450;2023-03-16T00:14:01;-0.70;99.90
29413;DHT22;16389;50.126;8.450;2023-03-16T00:16:29;-0.80;99.90
29413;DHT22;16389;50.126;8.450;2023-03-16T00:18:54;-0.80;99.90
29413;DHT22;16389;50.126;8.450;2023-03-16T00:21:20;-0.80;99.90
29413;DHT22;16389;50.126;8.450;2023-03-16T00:23:45;-0.80;99.90
29413;DHT22;16389;50.126;8.450;2023-03-16T00:26:11;-0.80;99.90
29413;DHT22;16389;50.126;8.450;2023-03-16T00:28:37;-0.80;99.90
29413;DHT22;16389;50.126;8.450;2023-03-16T00:31:05;-0.80;99.90
29413;DHT22;16389;50.126;8.450;2023-03-16T00:33:31;-0.80;99.90
29413;DHT22;16389;50.126;8.450;2023-03-16T00:36:01;-0.70;99.90
29413;DHT22;16389;50.126;8.450;2023-03-16T00:38:32;-0.70;99.90
29413;DHT22;16389;50.126;8.450;2023-03-16T00:40:59;-0.70;99.90
29413;DHT22;16389;50.126;8.450;2023-03-16T00:43:37;-0.60;99.90
29413;DHT22;16389;50.126;8.450;2023-03-16T00:46:08;-0.60;99.90
29413;DHT22;16389;50.126;8.450;2023-03-16T00:48:35;-0.70;99.90
29413;DHT22;16389;50.126;8.450;2023-03-16T00:51:02;-0.80;99.90
29413;DHT22;16389;50.126;8.450;2023-03-16T00:53:29;-0.80;99.90
29413;DHT22;16389;50.126;8.450;2023-03-16T00:55:56;-0.90;99.90
29413;DHT22;16389;50.126;8.450;2023-03-16T00:58:21;-0.90;99.90
29413;DHT22;16389;50.126;8.450;2023-03-16T01:00:47;-0.90;99.90
29413;DHT22;16389;50.126;8.450;2023-03-16T01:03:13;-0.90;99.90
29413;DHT22;16389;50.126;8.450;2023-03-16T01:05:40;-0.90;99.90
29413;DHT22;16389;50.126;8.450;2023-03-16T01:08:06;-0.80;99.90
29413;DHT22;16389;50.126;8.450;2023-03-16T01:10:36;-0.70;99.90
29413;DHT22;16389;50.126;8.450;2023-03-16T01:13:01;-0.70;99.90
29413;DHT22;16389;50.126;8.450;2023-03-16T01:15:30;-0.70;99.90
29413;DHT22;16389;50.126;8.450;2023-03-16T01:17:56;-0.60;99.90
29413;DHT22;16389;50.126;8.450;2023-03-16T01:20:22;-0.70;99.90
29413;DHT22;16389;50.126;8.450;2023-03-16T01:22:48;-0.70;99.90
29413;DHT22;16389;50.126;8.450;2023-03-16T01:25:13;-0.60;99.90
29413;DHT22;16389;50.126;8.450;2023-03-16T01:27:39;-0.70;99.90
29413;DHT22;16389;50.126;8.450;2023-03-16T01:30:05;-0.80;99.90
29413;DHT22;16389;50.126;8.450;2023-03-16T01:32:31;-0.80;99.90
29413;DHT22;16389;50.126;8.450;2023-03-16T01:34:58;-0.70;99.90
29413;DHT22;16389;50.126;8.450;2023-03-16T01:37:24;-0.70;99.90
29413;DHT22;16389;50.126;8.450;2023-03-16T01:39:49;-0.70;99.90
29413;DHT22;16389;50.126;8.450;2023-03-16T01:42:15;-0.70;99.90
29413;DHT22;16389;50.126;8.450;2023-03-16T01:44:56;-0.80;99.90
29413;DHT22;16389;50.126;8.450;2023-03-16T01:47:22;-0.80;99.90
29413;DHT22;16389;50.126;8.450;2023-03-16T01:49:49;-0.80;99.90
29413;DHT22;16389;50.126;8.450;2023-03-16T01:52:23;-0.70;99.90
29413;DHT22;16389;50.126;8.450;2023-03-16T01:54:51;-0.80;99.90
29413;DHT22;16389;50.126;8.450;2023-03-16T01:57:21;-0.90;99.90
29413;DHT22;16389;50.126;8.450;2023-03-16T02:00:06;-0.80;99.90
29413;DHT22;16389;50.126;8.450;2023-03-16T02:02:38;-0.80;99.90
29413;DHT22;16389;50.126;8.450;2023-03-16T02:05:19;-0.80;99.90
29413;DHT22;16389;50.126;8.450;2023-03-16T02:07:48;-0.80;99.90
29413;DHT22;16389;50.126;8.450;2023-03-16T02:10:17;-0.70;99.90
29413;DHT22;16389;50.126;8.450;2023-03-16T02:12:43;-0.70;99.90
29413;DHT22;16389;50.126;8.450;2023-03-16T02:15:10;-0.70;99.90
29413;DHT22;16389;50.126;8.450;2023-03-16T02:17:36;-0.80;99.90
29413;DHT22;16389;50.126;8.450;2023-03-16T02:22:44;-0.80;99.90
29413;DHT22;16389;50.126;8.450;2023-03-16T02:25:13;-0.80;99.90
29413;DHT22;16389;50.126;8.450;2023-03-16T02:28:02;-0.80;99.90
29413;DHT22;16389;50.126;8.450;2023-03-16T02:30:30;-0.90;99.90
29413;DHT22;16389;50.126;8.450;2023-03-16T02:32:56;-0.90;99.90
29413;DHT22;16389;50.126;8.450;2023-03-16T02:35:22;-0.90;99.90
29413;DHT22;16389;50.126;8.450;2023-03-16T02:37:48;-0.90;99.90
29413;DHT22;16389;50.126;8.450;2023-03-16T02:40:34;-0.90;99.90
29413;DHT22;16389;50.126;8.450;2023-03-16T02:43:15;-0.80;99.90
29413;DHT22;16389;50.126;8.450;2023-03-16T02:45:42;-0.90;99.90
29413;DHT22;16389;50.126;8.450;2023-03-16T02:48:16;-1.00;99.90
29413;DHT22;16389;50.126;8.450;2023-03-16T02:50:48;-1.00;99.90
29413;DHT22;16389;50.126;8.450;2023-03-16T02:53:16;-1.00;99.90
29413;DHT22;16389;50.126;8.450;2023-03-16T02:55:42;-0.90;99.90
29413;DHT22;16389;50.126;8.450;2023-03-16T02:58:09;-0.90;99.90
29413;DHT22;16389;50.126;8.450;2023-03-16T03:00:36;-0.90;99.90
29413;DHT22;16389;50.126;8.450;2023-03-16T03:03:03;-0.80;99.90
29413;DHT22;16389;50.126;8.450;2023-03-16T03:05:28;-0.80;99.90
29413;DHT22;16389;50.126;8.450;2023-03-16T03:07:54;-0.70;99.90
29413;DHT22;16389;50.126;8.450;2023-03-16T03:10:19;-0.70;99.90
29413;DHT22;16389;50.126;8.450;2023-03-16T03:12:46;-0.60;99.90
29413;DHT22;16389;50.126;8.450;2023-03-16T03:15:15;-0.60;99.90
29413;DHT22;16389;50.126;8.450;2023-03-16T03:17:41;-0.60;99.90
29413;DHT22;16389;50.126;8.450;2023-03-16T03:20:09;-0.60;99.90
29413;DHT22;16389;50.126;8.450;2023-03-16T03:22:40;-0.50;99.90
29413;DHT22;16389;50.126;8.450;2023-03-16T03:25:06;-0.50;99.90
29413;DHT22;16389;50.126;8.450;2023-03-16T03:27:31;-0.50;99.90
29413;DHT22;16389;50.126;8.450;2023-03-16T03:29:57;-0.60;99.90
29413;DHT22;16389;50.126;8.450;2023-03-16T03:32:23;-0.60;99.90
29413;DHT22;16389;50.126;8.450;2023-03-16T03:34:49;-0.60;99.90
29413;DHT22;16389;50.126;8.450;2023-03-16T03:37:15;-0.60;99.90
29413;DHT22;16389;50.126;8.450;2023-03-16T03:39:41;-0.70;99.90
29413;DHT22;16389;50.126;8.450;2023-03-16T03:42:07;-0.70;99.90
29413;DHT22;16389;50.126;8.450;2023-03-16T03:44:32;-0.70;99.90
29413;DHT22;16389;50.126;8.450;2023-03-16T03:47:01;-0.70;99.90
29413;DHT22;16389;50.126;8.450;2023-03-16T03:49:27;-0.80;99.90
29413;DHT22;16389;50.126;8.450;2023-03-16T03:51:53;-0.80;99.90
29413;DHT22;16389;50.126;8.450;2023-03-16T03:54:20;-0.70;99.90
29413;DHT22;16389;50.126;8.450;2023-03-16T03:56:45;-0.70;99.90
29413;DHT22;16389;50.126;8.450;2023-03-16T03:59:11;-0.70;99.90
29413;DHT22;16389;50.126;8.450;2023-03-16T04:01:36;-0.80;99.90
29413;DHT22;16389;50.126;8.450;2023-03-16T04:04:02;-0.70;99.90
29413;DHT22;16389;50.126;8.450;2023-03-16T04:06:28;-0.70;99.90
29413;DHT22;16389;50.126;8.450;2023-03-16T04:08:53;-0.70;99.90
29413;DHT22;16389;50.126;8.450;2023-03-16T04:11:19;-0.80;99.90
29413;DHT22;16389;50.126;8.450;2023-03-16T04:13:46;-0.80;99.90
29413;DHT22;16389;50.126;8.450;2023-03-16T04:16:12;-0.80;99.90
29413;DHT22;16389;50.126;8.450;2023-03-16T04:18:40;-0.80;99.90
29413;DHT22;16389;50.126;8.450;2023-03-16T04:21:08;-0.80;99.90
29413;DHT22;16389;50.126;8.450;2023-03-16T04:23:37;-0.80;99.90
29413;DHT22;16389;50.126;8.450;2023-03-16T04:26:02;-0.80;99.90
29413;DHT22;16389;50.126;8.450;2023-03-16T04:28:30;-0.90;99.90
29413;DHT22;16389;50.126;8.450;2023-03-16T04:31:05;-0.90;99.90
29413;DHT22;16389;50.126;8.450;2023-03-16T04:33:32;-0.90;99.90
29413;DHT22;16389;50.126;8.450;2023-03-16T04:35:59;-0.80;99.90
29413;DHT22;16389;50.126;8.450;2023-03-16T04:38:30;-0.80;99.90
29413;DHT22;16389;50.126;8.450;2023-03-16T04:40:59;-0.80;99.90
29413;DHT22;16389;50.126;8.450;2023-03-16T04:43:24;-0.80;99.90
29413;DHT22;16389;50.126;8.450;2023-03-16T04:45:51;-0.80;99.90
29413;DHT22;16389;50.126;8.450;2023-03-16T04:48:17;-0.80;99.90
29413;DHT22;16389;50.126;8.450;2023-03-16T04:50:43;-0.80;99.90
29413;DHT22;16389;50.126;8.450;2023-03-16T04:53:08;-0.80;99.90
29413;DHT22;16389;50.126;8.450;2023-03-16T04:55:34;-0.80;99.90
29413;DHT22;16389;50.126;8.450;2023-03-16T04:58:00;-0.90;99.90
29413;DHT22;16389;50.126;8.450;2023-03-16T05:00:26;-0.90;99.90
29413;DHT22;16389;50.126;8.450;2023-03-16T05:02:52;-1.00;99.90
29413;DHT22;16389;50.126;8.450;2023-03-16T05:05:18;-1.00;99.90
29413;DHT22;16389;50.126;8.450;2023-03-16T05:07:44;-1.00;99.90
29413;DHT22;16389;50.126;8.450;2023-03-16T05:10:12;-1.00;99.90
29413;DHT22;16389;50.126;8.450;2023-03-16T05:12:38;-1.00;99.90
29413;DHT22;16389;50.126;8.450;2023-03-16T05:15:04;-0.90;99.90
29413;DHT22;16389;50.126;8.450;2023-03-16T05:17:31;-1.00;99.90
29413;DHT22;16389;50.126;8.450;2023-03-16T05:19:57;-0.90;99.90
29413;DHT22;16389;50.126;8.450;2023-03-16T05:22:22;-0.90;99.90
29413;DHT22;16389;50.126;8.450;2023-03-16T05:24:48;-0.80;99.90
29413;DHT22;16389;50.126;8.450;2023-03-16T05:27:14;-0.80;99.90
29413;DHT22;16389;50.126;8.450;2023-03-16T05:29:40;-0.70;99.90
29413;DHT22;16389;50.126;8.450;2023-03-16T05:32:10;-0.70;99.90
29413;DHT22;16389;50.126;8.450;2023-03-16T05:34:36;-0.70;99.90
29413;DHT22;16389;50.126;8.450;2023-03-16T05:37:02;-0.70;99.90
29413;DHT22;16389;50.126;8.450;2023-03-16T05:39:28;-0.70;99.90
29413;DHT22;16389;50.126;8.450;2023-03-16T05:41:56;-0.70;99.90
29413;DHT22;16389;50.126;8.450;2023-03-16T05:44:21;-0.60;99.90
29413;DHT22;16389;50.126;8.450;2023-03-16T05:46:47;-0.50;99.90
29413;DHT22;16389;50.126;8.450;2023-03-16T05:49:13;-0.40;99.90
29413;DHT22;16389;50.126;8.450;2023-03-16T05:51:40;-0.40;99.90
29413;DHT22;16389;50.126;8.450;2023-03-16T05:54:06;-0.30;99.90
29413;DHT22;16389;50.126;8.450;2023-03-16T05:56:32;-0.30;99.90
29413;DHT22;16389;50.126;8.450;2023-03-16T05:58:58;-0.20;99.90
29413;DHT22;16389;50.126;8.450;2023-03-16T06:01:24;-0.20;99.90
29413;DHT22;16389;50.126;8.450;2023-03-16T06:03:50;-0.10;99.90
29413;DHT22;16389;50.126;8.450;2023-03-16T06:06:19;-0.10;99.90
29413;DHT22;16389;50.126;8.450;2023-03-16T06:08:46;0.00;99.90
29413;DHT22;16389;50.126;8.450;2023-03-16T06:11:12;0.00;99.90
29413;DHT22;16389;50.126;8.450;2023-03-16T06:13:38;0.10;99.90
29413;DHT22;16389;50.126;8.450;2023-03-16T06:16:04;0.20;99.90
29413;DHT22;16389;50.126;8.450;2023-03-16T06:18:35;0.30;99.90
29413;DHT22;16389;50.126;8.450;2023-03-16T06:21:01;0.30;99.90
29413;DHT22;16389;50.126;8.450;2023-03-16T06:23:29;0.50;99.90
29413;DHT22;16389;50.126;8.450;2023-03-16T06:25:55;0.60;99.90
29413;DHT22;16389;50.126;8.450;2023-03-16T06:28:21;0.60;99.90
29413;DHT22;16389;50.126;8.450;2023-03-16T06:30:47;0.70;99.90
29413;DHT22;16389;50.126;8.450;2023-03-16T06:33:13;0.80;99.90
29413;DHT22;16389;50.126;8.450;2023-03-16T06:35:38;0.90;99.90
29413;DHT22;16389;50.126;8.450;2023-03-16T06:38:04;1.00;99.90
29413;DHT22;16389;50.126;8.450;2023-03-16T06:40:30;1.20;99.90
29413;DHT22;16389;50.126;8.450;2023-03-16T06:42:56;1.40;99.90
29413;DHT22;16389;50.126;8.450;2023-03-16T06:45:21;1.50;99.90
29413;DHT22;16389;50.126;8.450;2023-03-16T06:47:47;1.60;99.90
29413;DHT22;16389;50.126;8.450;2023-03-16T06:50:13;1.80;99.90
29413;DHT22;16389;50.126;8.450;2023-03-16T06:52:39;2.00;99.90
29413;DHT22;16389;50.126;8.450;2023-03-16T06:55:06;2.10;99.90
29413;DHT22;16389;50.126;8.450;2023-03-16T06:57:32;2.20;99.90
29413;DHT22;16389;50.126;8.450;2023-03-16T06:59:58;2.40;99.90
29413;DHT22;16389;50.126;8.450;2023-03-16T07:02:24;2.50;99.90
29413;DHT22;16389;50.126;8.450;2023-03-16T07:04:49;2.60;99.90
29413;DHT22;16389;50.126;8.450;2023-03-16T07:07:15;2.70;99.90
29413;DHT22;16389;50.126;8.450;2023-03-16T07:09:42;2.80;99.90
29413;DHT22;16389;50.126;8.450;2023-03-16T07:12:08;2.90;99.90
29413;DHT22;16389;50.126;8.450;2023-03-16T07:14:34;3.00;99.90
29413;DHT22;16389;50.126;8.450;2023-03-16T07:17:00;3.10;99.90
29413;DHT22;16389;50.126;8.450;2023-03-16T07:19:26;3.20;99.90
29413;DHT22;16389;50.126;8.450;2023-03-16T07:21:52;3.30;99.90
29413;DHT22;16389;50.126;8.450;2023-03-16T07:24:18;3.40;99.90
29413;DHT22;16389;50.126;8.450;2023-03-16T07:26:44;3.50;99.90
29413;DHT22;16389;50.126;8.450;2023-03-16T07:29:11;3.60;99.90
29413;DHT22;16389;50.126;8.450;2023-03-16T07:31:38;3.80;99.90
29413;DHT22;16389;50.126;8.450;2023-03-16T07:34:03;3.90;99.90
29413;DHT22;16389;50.126;8.450;2023-03-16T07:36:29;4.00;99.90
29413;DHT22;16389;50.126;8.450;2023-03-16T07:38:55;4.10;99.90
29413;DHT22;16389;50.126;8.450;2023-03-16T07:41:20;4.10;99.90
29413;DHT22;16389;50.126;8.450;2023-03-16T07:43:46;4.10;99.90
29413;DHT22;16389;50.126;8.450;2023-03-16T07:46:12;4.10;99.90
29413;DHT22;16389;50.126;8.450;2023-03-16T07:48:41;4.10;99.90
29413;DHT22;16389;50.126;8.450;2023-03-16T07:51:08;4.10;99.90
29413;DHT22;16389;50.126;8.450;2023-03-16T07:53:33;4.00;99.90
29413;DHT22;16389;50.126;8.450;2023-03-16T07:56:00;4.10;99.90
29413;DHT22;16389;50.126;8.450;2023-03-16T07:58:26;4.10;99.90
29413;DHT22;16389;50.126;8.450;2023-03-16T08:00:55;4.10;99.90
29413;DHT22;16389;50.126;8.450;2023-03-16T08:03:20;4.20;99.90
29413;DHT22;16389;50.126;8.450;2023-03-16T08:05:46;4.30;99.90
29413;DHT22;16389;50.126;8.450;2023-03-16T08:08:12;4.40;99.90
29413;DHT22;16389;50.126;8.450;2023-03-16T08:10:40;4.60;99.90
29413;DHT22;16389;50.126;8.450;2023-03-16T08:13:06;4.70;99.90
29413;DHT22;16389;50.126;8.450;2023-03-16T08:15:32;4.90;99.90
29413;DHT22;16389;50.126;8.450;2023-03-16T08:17:58;4.90;99.90
29413;DHT22;16389;50.126;8.450;2023-03-16T08:20:27;5.00;99.90
29413;DHT22;16389;50.126;8.450;2023-03-16T08:22:53;5.10;99.90
29413;DHT22;16389;50.126;8.450;2023-03-16T08:25:19;5.10;99.90
29413;DHT22;16389;50.126;8.450;2023-03-16T08:27:45;5.30;99.90
29413;DHT22;16389;50.126;8.450;2023-03-16T08:30:13;5.40;99.90
29413;DHT22;16389;50.126;8.450;2023-03-16T08:32:39;5.40;99.90
29413;DHT22;16389;50.126;8.450;2023-03-16T08:35:10;5.60;99.90
29413;DHT22;16389;50.126;8.450;2023-03-16T08:37:38;5.70;99.90
29413;DHT22;16389;50.126;8.450;2023-03-16T08:40:04;5.80;99.90
29413;DHT22;16389;50.126;8.450;2023-03-16T08:42:40;5.90;99.90
29413;DHT22;16389;50.126;8.450;2023-03-16T08:45:07;6.00;99.90
29413;DHT22;16389;50.126;8.450;2023-03-16T08:47:37;6.20;99.90
29413;DHT22;16389;50.126;8.450;2023-03-16T08:50:05;6.40;99.90
29413;DHT22;16389;50.126;8.450;2023-03-16T08:52:32;6.60;99.90
29413;DHT22;16389;50.126;8.450;2023-03-16T08:54:58;6.90;99.90
29413;DHT22;16389;50.126;8.450;2023-03-16T08:57:24;6.90;99.90
29413;DHT22;16389;50.126;8.450;2023-03-16T08:59:50;7.00;99.90
29413;DHT22;16389;50.126;8.450;2023-03-16T09:02:16;7.20;99.90
29413;DHT22;16389;50.126;8.450;2023-03-16T09:04:42;7.60;99.90
29413;DHT22;16389;50.126;8.450;2023-03-16T09:07:07;7.80;99.90
29413;DHT22;16389;50.126;8.450;2023-03-16T09:09:33;8.00;99.90
29413;DHT22;16389;50.126;8.450;2023-03-16T09:12:00;8.20;99.90
29413;DHT22;16389;50.126;8.450;2023-03-16T09:14:26;8.30;99.90
29413;DHT22;16389;50.126;8.450;2023-03-16T09:16:51;8.20;99.90
29413;DHT22;16389;50.126;8.450;2023-03-16T09:19:17;8.20;99.90
29413;DHT22;16389;50.126;8.450;2023-03-16T09:21:43;8.40;99.90
29413;DHT22;16389;50.126;8.450;2023-03-16T09:24:10;8.40;99.90
29413;DHT22;16389;50.126;8.450;2023-03-16T09:26:36;8.50;99.90
29413;DHT22;16389;50.126;8.450;2023-03-16T09:29:02;8.70;99.90
29413;DHT22;16389;50.126;8.450;2023-03-16T09:31:28;8.80;99.90
29413;DHT22;16389;50.126;8.450;2023-03-16T09:33:54;8.70;99.90
29413;DHT22;16389;50.126;8.450;2023-03-16T09:36:19;8.60;99.90
29413;DHT22;16389;50.126;8.450;2023-03-16T09:38:45;8.70;99.90
29413;DHT22;16389;50.126;8.450;2023-03-16T09:41:42;8.60;99.90
29413;DHT22;16389;50.126;8.450;2023-03-16T09:47:04;8.80;99.90
29413;DHT22;16389;50.126;8.450;2023-03-16T09:49:45;8.70;99.90
29413;DHT22;16389;50.126;8.450;2023-03-16T09:57:29;8.80;99.90
29413;DHT22;16389;50.126;8.450;2023-03-16T10:00:35;8.90;99.90
29413;DHT22;16389;50.126;8.450;2023-03-16T10:06:11;9.30;99.90
29413;DHT22;16389;50.126;8.450;2023-03-16T10:08:58;9.50;99.90
29413;DHT22;16389;50.126;8.450;2023-03-16T10:11:48;9.50;99.90
29413;DHT22;16389;50.126;8.450;2023-03-16T10:14:29;9.70;99.90
29413;DHT22;16389;50.126;8.450;2023-03-16T10:17:02;9.80;99.90
29413;DHT22;16389;50.126;8.450;2023-03-16T10:19:40;10.00;99.90
29413;DHT22;16389;50.126;8.450;2023-03-16T10:22:25;10.10;99.90
29413;DHT22;16389;50.126;8.450;2023-03-16T10:27:39;10.50;99.90
29413;DHT22;16389;50.126;8.450;2023-03-16T10:30:28;10.60;99.90
29413;DHT22;16389;50.126;8.450;2023-03-16T10:33:04;10.80;99.90
29413;DHT22;16389;50.126;8.450;2023-03-16T10:35:47;11.20;99.90
29413;DHT22;16389;50.126;8.450;2023-03-16T10:41:53;11.50;99.90
29413;DHT22;16389;50.126;8.450;2023-03-16T10:43:53;11.50;99.90
29413;DHT22;16389;50.126;8.450;2023-03-16T10:46:20;11.80;99.90
29413;DHT22;16389;50.126;8.450;2023-03-16T10:48:57;12.10;99.90
29413;DHT22;16389;50.126;8.450;2023-03-16T10:51:27;12.50;99.90
29413;DHT22;16389;50.126;8.450;2023-03-16T10:53:57;12.90;99.90
29413;DHT22;16389;50.126;8.450;2023-03-16T10:56:33;13.10;99.90
29413;DHT22;16389;50.126;8.450;2023-03-16T10:58:59;13.20;99.90
29413;DHT22;16389;50.126;8.450;2023-03-16T11:01:27;13.00;99.90
29413;DHT22;16389;50.126;8.450;2023-03-16T11:03:55;13.50;99.90
29413;DHT22;16389;50.126;8.450;2023-03-16T11:06:27;14.30;99.00
29413;DHT22;16389;50.126;8.450;2023-03-16T11:09:13;14.80;97.00
29413;DHT22;16389;50.126;8.450;2023-03-16T11:11:39;15.30;95.40
29413;DHT22;16389;50.126;8.450;2023-03-16T11:14:12;15.80;94.80
29413;DHT22;16389;50.126;8.450;2023-03-16T11:16:42;16.20;93.90
29413;DHT22;16389;50.126;8.450;2023-03-16T11:19:33;16.80;93.30
29413;DHT22;16389;50.126;8.450;2023-03-16T11:27:10;18.10;88.80
29413;DHT22;16389;50.126;8.450;2023-03-16T11:32:19;18.40;86.40
29413;DHT22;16389;50.126;8.450;2023-03-16T11:34:46;18.50;85.40
29413;DHT22;16389;50.126;8.450;2023-03-16T11:37:15;19.20;84.20
29413;DHT22;16389;50.126;8.450;2023-03-16T11:41:02;18.80;83.10
29413;DHT22;16389;50.126;8.450;2023-03-16T11:43:08;18.60;83.80
29413;DHT22;16389;50.126;8.450;2023-03-16T11:45:44;18.30;84.40
29413;DHT22;16389;50.126;8.450;2023-03-16T11:48:56;18.30;85.70
29413;DHT22;16389;50.126;8.450;2023-03-16T11:51:33;18.70;81.40
29413;DHT22;16389;50.126;8.450;2023-03-16T11:56:53;17.70;82.70
29413;DHT22;16389;50.126;8.450;2023-03-16T11:59:32;16.70;84.00
29413;DHT22;16389;50.126;8.450;2023-03-16T12:08:16;15.10;91.10
29413;DHT22;16389;50.126;8.450;2023-03-16T12:11:06;14.90;91.30
29413;DHT22;16389;50.126;8.450;2023-03-16T12:16:40;15.50;90.20
29413;DHT22;16389;50.126;8.450;2023-03-16T12:19:19;16.00;90.30
29413;DHT22;16389;50.126;8.450;2023-03-16T12:21:51;16.20;89.10
29413;DHT22;16389;50.126;8.450;2023-03-16T12:24:26;16.40;90.30
29413;DHT22;16389;50.126;8.450;2023-03-16T12:26:54;16.10;87.50
29413;DHT22;16389;50.126;8.450;2023-03-16T12:29:39;16.20;88.90
29413;DHT22;16389;50.126;8.450;2023-03-16T12:34:40;15.80;90.20
29413;DHT22;16389;50.126;8.450;2023-03-16T12:37:39;15.60;90.50
29413;DHT22;16389;50.126;8.450;2023-03-16T12:48:47;17.10;89.10
29413;DHT22;16389;50.126;8.450;2023-03-16T12:51:13;17.30;86.10
29413;DHT22;16389;50.126;8.450;2023-03-16T12:53:54;17.50;87.60
29413;DHT22;16389;50.126;8.450;2023-03-16T12:56:34;17.40;85.30
29413;DHT22;16389;50.126;8.450;2023-03-16T12:59:03;17.20;86.70
29413;DHT22;16389;50.126;8.450;2023-03-16T13:01:41;17.40;87.00
29413;DHT22;16389;50.126;8.450;2023-03-16T13:04:13;18.00;86.60
29413;DHT22;16389;50.126;8.450;2023-03-16T13:06:43;17.80;85.70
29413;DHT22;16389;50.126;8.450;2023-03-16T13:09:11;17.60;84.10
29413;DHT22;16389;50.126;8.450;2023-03-16T13:11:44;17.70;85.50
29413;DHT22;16389;50.126;8.450;2023-03-16T13:14:29;17.60;83.70
29413;DHT22;16389;50.126;8.450;2023-03-16T13:19:40;18.30;85.60
29413;DHT22;16389;50.126;8.450;2023-03-16T13:25:09;20.30;82.20
29413;DHT22;16389;50.126;8.450;2023-03-16T13:27:37;22.30;76.80
29413;DHT22;16389;50.126;8.450;2023-03-16T13:32:42;24.60;69.10
29413;DHT22;16389;50.126;8.450;2023-03-16T13:35:13;24.40;68.40
29413;DHT22;16389;50.126;8.450;2023-03-16T13:37:42;24.00;66.50
29413;DHT22;16389;50.126;8.450;2023-03-16T13:40:34;23.40;67.20
29413;DHT22;16389;50.126;8.450;2023-03-16T13:43:02;22.60;68.20
29413;DHT22;16389;50.126;8.450;2023-03-16T13:45:32;21.80;70.70
29413;DHT22;16389;50.126;8.450;2023-03-16T13:47:59;21.30;71.60
29413;DHT22;16389;50.126;8.450;2023-03-16T13:50:26;20.70;72.50
29413;DHT22;16389;50.126;8.450;2023-03-16T13:52:58;20.60;74.00
29413;DHT22;16389;50.126;8.450;2023-03-16T13:55:35;20.20;72.90
29413;DHT22;16389;50.126;8.450;2023-03-16T13:58:02;19.20;75.40
29413;DHT22;16389;50.126;8.450;2023-03-16T14:00:33;18.90;77.10
29413;DHT22;16389;50.126;8.450;2023-03-16T14:03:10;18.30;79.40
29413;DHT22;16389;50.126;8.450;2023-03-16T14:05:38;17.70;78.60
29413;DHT22;16389;50.126;8.450;2023-03-16T14:08:22;17.50;79.50
29413;DHT22;16389;50.126;8.450;2023-03-16T14:10:49;16.90;81.00
29413;DHT22;16389;50.126;8.450;2023-03-16T14:16:02;15.70;83.80
29413;DHT22;16389;50.126;8.450;2023-03-16T14:18:36;15.40;86.50
29413;DHT22;16389;50.126;8.450;2023-03-16T14:21:06;15.00;87.70
29413;DHT22;16389;50.126;8.450;2023-03-16T14:23:36;14.80;89.40
29413;DHT22;16389;50.126;8.450;2023-03-16T14:26:05;14.60;90.20
29413;DHT22;16389;50.126;8.450;2023-03-16T14:28:32;14.50;90.50
29413;DHT22;16389;50.126;8.450;2023-03-16T14:31:08;14.40;90.80
29413;DHT22;16389;50.126;8.450;2023-03-16T14:33:35;14.10;90.60
29413;DHT22;16389;50.126;8.450;2023-03-16T14:36:16;14.30;90.90
29413;DHT22;16389;50.126;8.450;2023-03-16T14:38:42;14.20;91.50
29413;DHT22;16389;50.126;8.450;2023-03-16T14:41:21;14.20;91.70
29413;DHT22;16389;50.126;8.450;2023-03-16T14:43:56;14.40;92.20
29413;DHT22;16389;50.126;8.450;2023-03-16T14:49:17;14.70;91.60
29413;DHT22;16389;50.126;8.450;2023-03-16T14:51:45;15.00;91.00
29413;DHT22;16389;50.126;8.450;2023-03-16T14:54:17;15.60;90.40
29413;DHT22;16389;50.126;8.450;2023-03-16T14:56:59;16.30;89.20
29413;DHT22;16389;50.126;8.450;2023-03-16T14:59:25;16.70;87.00
29413;DHT22;16389;50.126;8.450;2023-03-16T15:01:51;17.00;86.40
29413;DHT22;16389;50.126;8.450;2023-03-16T15:04:25;17.40;85.70
29413;DHT22;16389;50.126;8.450;2023-03-16T15:06:52;18.50;84.30
29413;DHT22;16389;50.126;8.450;2023-03-16T15:11:59;20.10;78.20
29413;DHT22;16389;50.126;8.450;2023-03-16T15:14:25;20.30;77.20
29413;DHT22;16389;50.126;8.450;2023-03-16T15:17:19;20.10;76.90
29413;DHT22;16389;50.126;8.450;2023-03-16T15:19:45;19.70;78.00
29413;DHT22;16389;50.126;8.450;2023-03-16T15:22:11;19.90;77.70
29413;DHT22;16389;50.126;8.450;2023-03-16T15:24:37;19.60;76.90
29413;DHT22;16389;50.126;8.450;2023-03-16T15:27:09;19.50;78.40
29413;DHT22;16389;50.126;8.450;2023-03-16T15:29:41;19.60;79.50
29413;DHT22;16389;50.126;8.450;2023-03-16T15:32:11;19.70;79.20
29413;DHT22;16389;50.126;8.450;2023-03-16T15:34:37;19.80;78.50
29413;DHT22;16389;50.126;8.450;2023-03-16T15:37:03;19.80;77.00
29413;DHT22;16389;50.126;8.450;2023-03-16T15:39:29;19.90;76.40
29413;DHT22;16389;50.126;8.450;2023-03-16T15:41:54;19.70;76.90
29413;DHT22;16389;50.126;8.450;2023-03-16T15:44:20;20.00;77.60
29413;DHT22;16389;50.126;8.450;2023-03-16T15:46:47;20.10;76.90
29413;DHT22;16389;50.126;8.450;2023-03-16T15:49:13;20.30;77.80
29413;DHT22;16389;50.126;8.450;2023-03-16T15:51:38;20.40;77.30
29413;DHT22;16389;50.126;8.450;2023-03-16T15:54:06;20.20;75.10
29413;DHT22;16389;50.126;8.450;2023-03-16T15:56:36;20.00;76.20
29413;DHT22;16389;50.126;8.450;2023-03-16T15:59:04;19.60;77.80
29413;DHT22;16389;50.126;8.450;2023-03-16T16:01:39;19.10;77.90
29413;DHT22;16389;50.126;8.450;2023-03-16T16:04:13;18.40;78.60
29413;DHT22;16389;50.126;8.450;2023-03-16T16:06:40;17.80;81.10
29413;DHT22;16389;50.126;8.450;2023-03-16T16:09:06;17.10;83.50
29413;DHT22;16389;50.126;8.450;2023-03-16T16:11:32;16.50;84.80
29413;DHT22;16389;50.126;8.450;2023-03-16T16:13:58;15.90;86.80
29413;DHT22;16389;50.126;8.450;2023-03-16T16:16:27;15.40;88.30
29413;DHT22;16389;50.126;8.450;2023-03-16T16:18:53;14.80;89.60
29413;DHT22;16389;50.126;8.450;2023-03-16T16:21:22;14.40;90.60
29413;DHT22;16389;50.126;8.450;2023-03-16T16:23:50;13.90;91.40
29413;DHT22;16389;50.126;8.450;2023-03-16T16:26:28;13.50;92.20
29413;DHT22;16389;50.126;8.450;2023-03-16T16:28:55;13.20;92.60
29413;DHT22;16389;50.126;8.450;2023-03-16T16:31:23;13.00;93.20
29413;DHT22;16389;50.126;8.450;2023-03-16T16:33:50;12.70;93.80
29413;DHT22;16389;50.126;8.450;2023-03-16T16:36:17;12.60;94.20
29413;DHT22;16389;50.126;8.450;2023-03-16T16:38:45;12.30;94.30
29413;DHT22;16389;50.126;8.450;2023-03-16T16:41:27;12.10;95.20
29413;DHT22;16389;50.126;8.450;2023-03-16T16:43:54;12.10;95.60
29413;DHT22;16389;50.126;8.450;2023-03-16T16:46:23;12.00;95.50
29413;DHT22;16389;50.126;8.450;2023-03-16T16:48:52;11.70;95.90
29413;DHT22;16389;50.126;8.450;2023-03-16T16:51:23;11.50;96.00
29413;DHT22;16389;50.126;8.450;2023-03-16T16:53:51;11.30;97.10
29413;DHT22;16389;50.126;8.450;2023-03-16T16:56:31;11.20;97.30